createdAt,value
2023-04-16T00:00:39.571Z,102338.16
2023-04-16T00:03:06.383Z,102343.56
2023-04-16T00:05:33.002Z,102342.66
2023-04-16T00:07:59.521Z,102330.41
2023-04-16T00:10:26.060Z,102349.72
2023-04-16T00:12:52.558Z,102346.16
2023-04-16T00:15:19.096Z,102346.19
2023-04-16T00:17:45.743Z,102345.34
2023-04-16T00:20:12.422Z,102354.97
2023-04-16T00:22:39.446Z,102350.59
2023-04-16T00:25:06.331Z,102345.22
2023-04-16T00:27:32.949Z,102345.41
2023-04-16T00:29:59.482Z,102347.16
2023-04-16T00:32:26.116Z,102336.59
2023-04-16T00:34:52.705Z,102342.81
2023-04-16T00:37:19.212Z,102342.84
2023-04-16T00:39:45.747Z,102339.22
2023-04-16T00:42:12.287Z,102336.72
2023-04-16T00:44:38.764Z,102334.06
2023-04-16T00:47:07.503Z,102335.00
2023-04-16T00:49:34.183Z,102339.44
2023-04-16T00:52:02.483Z,102333.41
2023-04-16T00:54:29.273Z,102339.53
2023-04-16T00:56:56.690Z,102344.78
2023-04-16T00:59:23.166Z,102342.22
2023-04-16T01:01:49.786Z,102343.88
2023-04-16T01:04:16.510Z,102341.13
2023-04-16T01:06:43.130Z,102343.81
2023-04-16T01:09:12.892Z,102351.66
2023-04-16T01:11:39.915Z,102353.34
2023-04-16T01:14:06.643Z,102346.38
2023-04-16T01:16:33.126Z,102357.88
2023-04-16T01:18:59.771Z,102357.09
2023-04-16T01:21:26.557Z,102350.03
2023-04-16T01:23:53.040Z,102355.31
2023-04-16T01:26:19.538Z,102356.97
2023-04-16T01:28:46.289Z,102356.16
2023-04-16T01:31:12.865Z,102352.59
2023-04-16T01:33:39.411Z,102350.81
2023-04-16T01:36:06.207Z,102347.38
2023-04-16T01:38:32.716Z,102356.19
2023-04-16T01:40:59.657Z,102358.84
2023-04-16T01:43:26.258Z,102358.81
2023-04-16T01:45:57.019Z,102372.88
2023-04-16T01:48:23.530Z,102366.75
2023-04-16T01:50:50.205Z,102359.78
2023-04-16T01:53:16.721Z,102355.38
2023-04-16T01:55:43.205Z,102360.66
2023-04-16T01:58:11.039Z,102357.94
2023-04-16T02:00:37.735Z,102363.16
2023-04-16T02:03:04.549Z,102367.59
2023-04-16T02:05:31.281Z,102362.41
2023-04-16T02:07:57.752Z,102365.97
2023-04-16T02:10:24.250Z,102363.28
2023-04-16T02:12:51.260Z,102367.72
2023-04-16T02:15:17.858Z,102369.53
2023-04-16T02:17:46.358Z,102373.97
2023-04-16T02:20:12.848Z,102373.97
2023-04-16T02:22:39.331Z,102380.16
2023-04-16T02:25:06.044Z,102376.63
2023-04-16T02:27:32.787Z,102374.81
2023-04-16T02:29:59.347Z,102377.41
2023-04-16T02:32:25.891Z,102374.78
2023-04-16T02:34:52.392Z,102381.81
2023-04-16T02:37:18.855Z,102375.75
2023-04-16T02:39:46.317Z,102373.06
2023-04-16T02:42:13.359Z,102382.75
2023-04-16T02:44:39.902Z,102378.38
2023-04-16T02:47:06.400Z,102375.63
2023-04-16T02:49:33.018Z,102375.63
2023-04-16T02:51:59.498Z,102376.50
2023-04-16T02:54:26.025Z,102372.94
2023-04-16T02:56:52.548Z,102381.72
2023-04-16T02:59:19.038Z,102375.59
2023-04-16T03:01:45.556Z,102370.31
2023-04-16T03:04:12.065Z,102373.78
2023-04-16T03:06:38.639Z,102366.91
2023-04-16T03:09:05.154Z,102379.97
2023-04-16T03:11:31.747Z,102374.72
2023-04-16T03:13:58.287Z,102387.88
2023-04-16T03:16:24.809Z,102379.16
2023-04-16T03:18:51.370Z,102379.22
2023-04-16T03:21:17.900Z,102381.91
2023-04-16T03:23:44.409Z,102381.06
2023-04-16T03:26:10.912Z,102383.69
2023-04-16T03:28:37.420Z,102387.22
2023-04-16T03:31:04.358Z,102380.22
2023-04-16T03:33:31.203Z,102384.63
2023-04-16T03:35:58.630Z,102386.41
2023-04-16T03:38:26.624Z,102382.94
2023-04-16T03:40:53.317Z,102384.69
2023-04-16T03:43:19.896Z,102382.94
2023-04-16T03:45:47.131Z,102382.06
2023-04-16T03:48:13.802Z,102382.06
2023-04-16T03:50:40.546Z,102379.38
2023-04-16T03:53:07.057Z,102388.09
2023-04-16T03:55:33.604Z,102378.53
2023-04-16T03:58:03.124Z,102378.41
2023-04-16T04:00:30.509Z,102385.44
2023-04-16T04:02:57.355Z,102384.56
2023-04-16T04:05:24.113Z,102383.69
2023-04-16T04:07:50.616Z,102387.28
2023-04-16T04:10:17.122Z,102390.84
2023-04-16T04:12:44.105Z,102385.56
2023-04-16T04:15:11.630Z,102385.53
2023-04-16T04:17:38.287Z,102385.56
2023-04-16T04:20:05.374Z,102390.91
2023-04-16T04:22:31.900Z,102383.00
2023-04-16T04:24:58.471Z,102391.78
2023-04-16T04:27:25.024Z,102393.53
2023-04-16T04:29:51.557Z,102391.75
2023-04-16T04:32:18.224Z,102385.50
2023-04-16T04:34:44.756Z,102388.22
2023-04-16T04:37:11.503Z,102380.25
2023-04-16T04:39:38.092Z,102389.16
2023-04-16T04:42:04.768Z,102393.59
2023-04-16T04:44:31.359Z,102394.44
2023-04-16T04:46:57.860Z,102395.28
2023-04-16T04:49:24.373Z,102394.38
2023-04-16T04:51:50.942Z,102394.38
2023-04-16T04:54:17.471Z,102403.16
2023-04-16T04:56:45.878Z,102402.28
2023-04-16T04:59:12.730Z,102408.34
2023-04-16T05:01:39.334Z,102412.69
2023-04-16T05:04:06.214Z,102407.47
2023-04-16T05:06:32.792Z,102414.44
2023-04-16T05:08:59.261Z,102407.47
2023-04-16T05:11:25.956Z,102414.47
2023-04-16T05:13:52.411Z,102413.59
2023-04-16T05:16:18.920Z,102411.81
2023-04-16T05:18:45.541Z,102415.31
2023-04-16T05:21:12.082Z,102418.75
2023-04-16T05:23:38.632Z,102421.44
2023-04-16T05:26:05.301Z,102431.97
2023-04-16T05:28:32.061Z,102430.16
2023-04-16T05:30:58.603Z,102424.91
2023-04-16T05:33:25.252Z,102431.13
2023-04-16T05:35:51.818Z,102433.72
2023-04-16T05:38:18.694Z,102433.69
2023-04-16T05:40:45.384Z,102436.38
2023-04-16T05:43:11.948Z,102436.31
2023-04-16T05:45:41.184Z,102428.47
2023-04-16T05:48:10.967Z,102439.91
2023-04-16T05:50:38.045Z,102435.44
2023-04-16T05:53:06.741Z,102446.00
2023-04-16T05:55:33.575Z,102443.31
2023-04-16T05:58:00.155Z,102436.38
2023-04-16T06:00:27.215Z,102434.53
2023-04-16T06:02:53.996Z,102438.97
2023-04-16T06:05:20.671Z,102438.88
2023-04-16T06:07:47.388Z,102438.06
2023-04-16T06:10:13.881Z,102447.66
2023-04-16T06:12:40.502Z,102437.13
2023-04-16T06:15:07.719Z,102451.13
2023-04-16T06:17:34.274Z,102450.25
2023-04-16T06:20:01.138Z,102446.72
2023-04-16T06:22:27.771Z,102451.09
2023-04-16T06:24:54.305Z,102451.97
2023-04-16T06:27:21.178Z,102454.63
2023-04-16T06:29:47.693Z,102457.16
2023-04-16T06:32:14.247Z,102456.22
2023-04-16T06:34:40.945Z,102460.69
2023-04-16T06:37:10.340Z,102456.34
2023-04-16T06:39:37.353Z,102459.88
2023-04-16T06:42:04.243Z,102458.19
2023-04-16T06:44:30.782Z,102457.13
2023-04-16T06:46:57.337Z,102463.34
2023-04-16T06:49:23.881Z,102459.00
2023-04-16T06:51:50.508Z,102473.09
2023-04-16T06:54:17.030Z,102467.69
2023-04-16T06:56:43.512Z,102458.00
2023-04-16T06:59:10.259Z,102472.09
2023-04-16T07:01:37.270Z,102466.69
2023-04-16T07:04:04.451Z,102469.28
2023-04-16T07:06:31.910Z,102465.75
2023-04-16T07:08:58.401Z,102463.06
2023-04-16T07:11:25.921Z,102464.75
2023-04-16T07:13:53.870Z,102472.75
2023-04-16T07:16:20.650Z,102475.53
2023-04-16T07:18:47.217Z,102479.00
2023-04-16T07:21:13.748Z,102475.44
2023-04-16T07:23:40.265Z,102473.63
2023-04-16T07:26:06.749Z,102478.00
2023-04-16T07:28:33.268Z,102477.22
2023-04-16T07:31:00.052Z,102470.09
2023-04-16T07:33:27.484Z,102480.53
2023-04-16T07:35:53.988Z,102481.34
2023-04-16T07:38:20.708Z,102486.50
2023-04-16T07:40:47.233Z,102485.59
2023-04-16T07:43:15.430Z,102488.19
2023-04-16T07:45:42.346Z,102492.41
2023-04-16T07:48:08.900Z,102500.47
2023-04-16T07:50:35.486Z,102491.81
2023-04-16T07:53:03.162Z,102498.94
2023-04-16T07:55:29.711Z,102513.09
2023-04-16T07:57:56.260Z,102510.31
2023-04-16T08:00:22.889Z,102505.84
2023-04-16T08:02:49.638Z,102507.56
2023-04-16T08:05:16.428Z,102512.00
2023-04-16T08:07:43.135Z,102515.28
2023-04-16T08:10:09.797Z,102517.03
2023-04-16T08:12:36.327Z,102516.16
2023-04-16T08:15:02.879Z,102516.25
2023-04-16T08:17:30.108Z,102521.47
2023-04-16T08:19:56.688Z,102524.81
2023-04-16T08:22:23.317Z,102531.78
2023-04-16T08:24:49.865Z,102527.41
2023-04-16T08:27:19.666Z,102530.00
2023-04-16T08:29:46.960Z,102532.69
2023-04-16T08:32:13.564Z,102530.16
2023-04-16T08:34:40.074Z,102540.66
2023-04-16T08:37:06.593Z,102536.25
2023-04-16T08:39:33.313Z,102526.66
2023-04-16T08:42:02.848Z,102527.44
2023-04-16T08:44:34.790Z,102536.34
2023-04-16T08:47:02.375Z,102533.81
2023-04-16T08:49:29.587Z,102535.56
2023-04-16T08:51:56.958Z,102542.38
2023-04-16T08:54:32.801Z,102547.63
2023-04-16T08:56:59.867Z,102550.22
2023-04-16T08:59:26.876Z,102550.97
2023-04-16T09:01:57.944Z,102559.06
2023-04-16T09:04:28.760Z,102553.75
2023-04-16T09:06:56.814Z,102554.44
2023-04-16T09:09:23.561Z,102556.19
2023-04-16T09:11:53.995Z,102555.25
2023-04-16T09:14:20.896Z,102557.28
2023-04-16T09:16:48.148Z,102565.25
2023-04-16T09:19:15.734Z,102572.31
2023-04-16T09:21:43.107Z,102571.34
2023-04-16T09:24:09.869Z,102574.00
2023-04-16T09:26:36.642Z,102570.50
2023-04-16T09:29:03.364Z,102577.56
2023-04-16T09:31:30.266Z,102572.38
2023-04-16T09:34:06.820Z,102579.47
2023-04-16T09:36:34.333Z,102574.16
2023-04-16T09:39:01.234Z,102581.97
2023-04-16T09:41:29.721Z,102581.16
2023-04-16T09:44:00.289Z,102580.22
2023-04-16T09:46:31.061Z,102584.56
2023-04-16T09:48:58.120Z,102586.34
2023-04-16T09:51:26.980Z,102587.91
2023-04-16T09:53:56.362Z,102592.28
2023-04-16T09:56:25.065Z,102596.88
2023-04-16T09:58:53.609Z,102593.44
2023-04-16T10:01:20.144Z,102595.22
2023-04-16T10:03:49.799Z,102601.41
2023-04-16T10:06:19.320Z,102598.78
2023-04-16T10:08:50.574Z,102605.84
2023-04-16T10:11:17.797Z,102609.28
2023-04-16T10:13:44.683Z,102605.75
2023-04-16T10:16:11.794Z,102607.47
2023-04-16T10:18:40.495Z,102611.88
2023-04-16T10:21:07.957Z,102612.72
2023-04-16T10:23:34.849Z,102611.84
2023-04-16T10:26:01.959Z,102617.84
2023-04-16T10:28:29.568Z,102611.72
2023-04-16T10:30:57.982Z,102608.88
2023-04-16T10:33:26.038Z,102613.22
2023-04-16T10:36:06.784Z,102612.38
2023-04-16T10:38:35.396Z,102613.16
2023-04-16T10:41:04.138Z,102609.75
2023-04-16T10:43:33.282Z,102619.47
2023-04-16T10:46:24.101Z,102612.44
2023-04-16T10:48:54.092Z,102617.72
2023-04-16T10:51:34.786Z,102615.00
2023-04-16T10:54:20.055Z,102619.13
2023-04-16T10:56:47.043Z,102612.13
2023-04-16T10:59:17.536Z,102613.97
2023-04-16T11:01:45.957Z,102617.50
2023-04-16T11:04:21.539Z,102613.13
2023-04-16T11:07:04.618Z,102618.41
2023-04-16T11:10:00.106Z,102608.69
2023-04-16T11:12:29.942Z,102620.06
2023-04-16T11:15:23.421Z,102603.94
2023-04-16T11:17:51.783Z,102616.16
2023-04-16T11:20:21.207Z,102611.63
2023-04-16T11:22:52.051Z,102605.56
2023-04-16T11:25:26.207Z,102612.41
2023-04-16T11:27:53.194Z,102607.91
2023-04-16T11:30:31.556Z,102619.19
2023-04-16T11:32:58.506Z,102608.50
2023-04-16T11:35:25.162Z,102608.19
2023-04-16T11:37:56.336Z,102610.78
2023-04-16T11:40:22.911Z,102608.03
2023-04-16T11:42:49.360Z,102612.31
2023-04-16T11:45:15.825Z,102622.00
2023-04-16T11:47:45.701Z,102611.41
2023-04-16T11:50:22.327Z,102617.25
2023-04-16T11:52:49.908Z,102610.22
2023-04-16T11:55:16.706Z,102618.31
2023-04-16T11:57:43.536Z,102616.69
2023-04-16T12:00:16.457Z,102618.28
2023-04-16T12:02:45.312Z,102616.00
2023-04-16T12:05:34.045Z,102620.38
2023-04-16T12:08:05.992Z,102624.63
2023-04-16T12:10:37.559Z,102625.38
2023-04-16T12:13:16.924Z,102621.50
2023-04-16T12:15:54.353Z,102616.56
2023-04-16T12:18:26.868Z,102616.03
2023-04-16T12:20:53.735Z,102622.91
2023-04-16T12:23:27.713Z,102623.06
2023-04-16T12:25:55.248Z,102627.47
2023-04-16T12:28:33.127Z,102625.94
2023-04-16T12:30:59.909Z,102629.28
2023-04-16T12:33:26.473Z,102628.66
2023-04-16T12:35:52.967Z,102632.09
2023-04-16T12:38:21.206Z,102633.00
2023-04-16T12:40:48.735Z,102625.56
2023-04-16T12:43:15.578Z,102623.38
2023-04-16T12:45:42.177Z,102624.00
2023-04-16T12:48:08.713Z,102627.72
2023-04-16T12:50:35.530Z,102624.19
2023-04-16T12:53:02.005Z,102631.38
2023-04-16T12:55:28.618Z,102633.97
2023-04-16T12:57:55.214Z,102634.28
2023-04-16T13:00:22.579Z,102637.53
2023-04-16T13:02:49.184Z,102626.72
2023-04-16T13:05:17.297Z,102634.72
2023-04-16T13:07:43.841Z,102638.94
2023-04-16T13:10:10.897Z,102634.69
2023-04-16T13:12:37.649Z,102633.63
2023-04-16T13:15:04.893Z,102635.63
2023-04-16T13:17:31.414Z,102629.22
2023-04-16T13:19:57.969Z,102631.06
2023-04-16T13:22:24.532Z,102635.16
2023-04-16T13:24:51.064Z,102638.56
2023-04-16T13:27:18.040Z,102632.34
2023-04-16T13:29:44.873Z,102637.72
2023-04-16T13:32:13.757Z,102635.25
2023-04-16T13:34:40.358Z,102634.25
2023-04-16T13:37:06.980Z,102625.56
2023-04-16T13:39:34.097Z,102629.94
2023-04-16T13:42:00.712Z,102632.56
2023-04-16T13:44:27.247Z,102632.59
2023-04-16T13:46:54.162Z,102627.25
2023-04-16T13:49:20.701Z,102623.09
2023-04-16T13:51:47.267Z,102631.13
2023-04-16T13:54:13.817Z,102627.97
2023-04-16T13:56:40.902Z,102626.97
2023-04-16T13:59:08.127Z,102626.47
2023-04-16T14:01:34.956Z,102630.63
2023-04-16T14:04:06.448Z,102631.38
2023-04-16T14:06:34.374Z,102630.38
2023-04-16T14:09:01.275Z,102631.66
2023-04-16T14:11:27.906Z,102634.28
2023-04-16T14:13:54.790Z,102636.78
2023-04-16T14:16:21.350Z,102636.13
2023-04-16T14:18:47.976Z,102633.19
2023-04-16T14:21:14.519Z,102633.41
2023-04-16T14:23:41.187Z,102634.44
2023-04-16T14:26:07.778Z,102633.31
2023-04-16T14:28:35.876Z,102629.00
2023-04-16T14:31:02.491Z,102629.97
2023-04-16T14:33:29.196Z,102628.94
2023-04-16T14:35:55.865Z,102623.19
2023-04-16T14:38:22.427Z,102622.16
2023-04-16T14:40:48.968Z,102620.56
2023-04-16T14:43:15.565Z,102624.72
2023-04-16T14:45:42.268Z,102632.19
2023-04-16T14:48:08.867Z,102625.28
2023-04-16T14:50:39.132Z,102628.91
2023-04-16T14:53:05.959Z,102625.31
2023-04-16T14:55:32.698Z,102622.84
2023-04-16T14:58:00.054Z,102624.19
2023-04-16T15:00:27.573Z,102623.00
2023-04-16T15:02:57.699Z,102619.47
2023-04-16T15:05:24.547Z,102622.09
2023-04-16T15:07:51.284Z,102621.19
2023-04-16T15:10:17.919Z,102617.63
2023-04-16T15:12:44.488Z,102619.34
2023-04-16T15:15:11.334Z,102616.72
2023-04-16T15:17:37.970Z,102624.03
2023-04-16T15:20:08.229Z,102623.84
2023-04-16T15:22:35.225Z,102625.53
2023-04-16T15:25:02.109Z,102626.34
2023-04-16T15:27:28.602Z,102625.50
2023-04-16T15:29:55.314Z,102624.81
2023-04-16T15:32:21.902Z,102616.13
2023-04-16T15:34:48.545Z,102621.84
2023-04-16T15:37:15.512Z,102615.75
2023-04-16T15:39:42.168Z,102611.72
2023-04-16T15:42:08.774Z,102618.16
2023-04-16T15:44:35.343Z,102614.50
2023-04-16T15:47:01.834Z,102612.72
2023-04-16T15:49:28.453Z,102618.97
2023-04-16T15:51:55.721Z,102612.44
2023-04-16T15:54:22.244Z,102621.34
2023-04-16T15:56:48.824Z,102623.13
2023-04-16T15:59:15.426Z,102623.03
2023-04-16T16:01:42.279Z,102615.19
2023-04-16T16:04:09.098Z,102617.28
2023-04-16T16:06:37.916Z,102619.00
2023-04-16T16:09:04.970Z,102621.31
2023-04-16T16:11:32.585Z,102619.72
2023-04-16T16:14:01.568Z,102617.75
2023-04-16T16:16:28.600Z,102618.94
2023-04-16T16:18:55.320Z,102625.13
2023-04-16T16:21:22.204Z,102620.03
2023-04-16T16:23:48.795Z,102612.19
2023-04-16T16:26:15.351Z,102621.88
2023-04-16T16:28:43.909Z,102634.25
2023-04-16T16:31:12.228Z,102623.88
2023-04-16T16:33:40.383Z,102633.59
2023-04-16T16:36:10.566Z,102623.94
2023-04-16T16:38:38.030Z,102624.13
2023-04-16T16:41:04.564Z,102630.16
2023-04-16T16:43:31.419Z,102630.50
2023-04-16T16:45:57.951Z,102632.38
2023-04-16T16:48:24.524Z,102629.00
2023-04-16T16:50:51.024Z,102624.38
2023-04-16T16:53:17.510Z,102628.69
2023-04-16T16:55:44.034Z,102633.91
2023-04-16T16:58:11.182Z,102633.88
2023-04-16T17:00:38.076Z,102627.91
2023-04-16T17:03:04.778Z,102635.56
2023-04-16T17:05:31.588Z,102638.56
2023-04-16T17:07:58.676Z,102641.22
2023-04-16T17:10:25.325Z,102646.69
2023-04-16T17:12:51.960Z,102652.94
2023-04-16T17:15:21.467Z,102646.66
2023-04-16T17:17:48.624Z,102639.81
2023-04-16T17:20:15.642Z,102637.34
2023-04-16T17:22:42.581Z,102641.72
2023-04-16T17:25:09.905Z,102641.66
2023-04-16T17:27:36.494Z,102641.94
2023-04-16T17:30:05.330Z,102641.97
2023-04-16T17:32:32.637Z,102636.63
2023-04-16T17:35:00.949Z,102643.53
2023-04-16T17:37:27.776Z,102640.84
2023-04-16T17:39:54.414Z,102647.09
2023-04-16T17:42:21.069Z,102638.34
2023-04-16T17:44:47.675Z,102645.44
2023-04-16T17:47:14.285Z,102641.97
2023-04-16T17:49:40.990Z,102634.97
2023-04-16T17:52:07.483Z,102639.28
2023-04-16T17:54:34.035Z,102638.44
2023-04-16T17:57:00.641Z,102645.41
2023-04-16T17:59:27.463Z,102646.34
2023-04-16T18:01:54.974Z,102646.25
2023-04-16T18:04:21.725Z,102648.94
2023-04-16T18:06:48.457Z,102653.25
2023-04-16T18:09:15.512Z,102662.09
2023-04-16T18:11:42.090Z,102670.25
2023-04-16T18:14:09.857Z,102664.97
2023-04-16T18:16:36.687Z,102668.63
2023-04-16T18:19:03.286Z,102669.59
2023-04-16T18:21:30.489Z,102678.44
2023-04-16T18:23:57.633Z,102669.75
2023-04-16T18:26:25.317Z,102674.22
2023-04-16T18:28:51.938Z,102672.50
2023-04-16T18:31:21.023Z,102681.34
2023-04-16T18:33:56.296Z,102681.28
2023-04-16T18:36:24.594Z,102689.19
2023-04-16T18:39:01.091Z,102686.63
2023-04-16T18:41:29.660Z,102687.53
2023-04-16T18:43:56.329Z,102689.31
2023-04-16T18:46:23.047Z,102690.25
2023-04-16T18:48:49.731Z,102694.59
2023-04-16T18:51:16.752Z,102689.28
2023-04-16T18:53:45.433Z,102697.25
2023-04-16T18:56:12.375Z,102698.19
2023-04-16T18:58:38.932Z,102701.75
2023-04-16T19:01:10.959Z,102700.91
2023-04-16T19:03:38.210Z,102696.53
2023-04-16T19:06:05.973Z,102704.41
2023-04-16T19:08:32.717Z,102706.09
2023-04-16T19:10:59.326Z,102700.88
2023-04-16T19:13:26.006Z,102709.69
2023-04-16T19:15:58.323Z,102700.13
2023-04-16T19:18:24.905Z,102707.19
2023-04-16T19:20:51.455Z,102710.72
2023-04-16T19:23:18.032Z,102710.78
2023-04-16T19:25:44.618Z,102715.16
2023-04-16T19:28:11.150Z,102712.53
2023-04-16T19:30:39.391Z,102715.09
2023-04-16T19:33:05.962Z,102712.38
2023-04-16T19:35:33.521Z,102711.47
2023-04-16T19:38:00.232Z,102714.06
2023-04-16T19:40:26.750Z,102714.94
2023-04-16T19:42:53.223Z,102714.94
2023-04-16T19:45:23.249Z,102716.75
2023-04-16T19:47:51.259Z,102717.59
2023-04-16T19:50:17.832Z,102715.91
2023-04-16T19:52:44.324Z,102720.31
2023-04-16T19:55:10.897Z,102724.72
2023-04-16T19:57:37.510Z,102722.97
2023-04-16T20:00:07.917Z,102719.47
2023-04-16T20:02:34.513Z,102716.84
2023-04-16T20:05:01.598Z,102723.00
2023-04-16T20:07:28.097Z,102721.16
2023-04-16T20:09:54.928Z,102724.72
2023-04-16T20:12:21.472Z,102722.94
2023-04-16T20:14:48.246Z,102724.72
2023-04-16T20:17:19.505Z,102724.72
2023-04-16T20:19:47.516Z,102728.28
2023-04-16T20:22:14.961Z,102723.84
2023-04-16T20:24:47.866Z,102724.81
2023-04-16T20:27:15.161Z,102719.50
2023-04-16T20:29:41.876Z,102726.50
2023-04-16T20:32:08.447Z,102719.47
2023-04-16T20:34:36.517Z,102722.06
2023-04-16T20:37:03.372Z,102723.88
2023-04-16T20:39:34.203Z,102722.09
2023-04-16T20:42:00.947Z,102720.41
2023-04-16T20:44:33.320Z,102715.13
2023-04-16T20:47:00.089Z,102711.69
2023-04-16T20:49:26.686Z,102718.66
2023-04-16T20:51:53.423Z,102715.19
2023-04-16T20:54:19.911Z,102710.72
2023-04-16T20:56:47.194Z,102705.59
2023-04-16T20:59:13.811Z,102710.91
2023-04-16T21:01:40.791Z,102710.00
2023-04-16T21:04:07.973Z,102708.16
2023-04-16T21:06:38.560Z,102708.16
2023-04-16T21:09:06.014Z,102702.91
2023-04-16T21:11:34.709Z,102704.69
2023-04-16T21:14:02.369Z,102707.28
2023-04-16T21:16:29.244Z,102707.31
2023-04-16T21:18:57.250Z,102702.88
2023-04-16T21:21:24.162Z,102707.28
2023-04-16T21:23:50.952Z,102702.84
2023-04-16T21:26:17.417Z,102700.19
2023-04-16T21:28:44.020Z,102703.75
2023-04-16T21:31:10.561Z,102697.66
2023-04-16T21:33:37.177Z,102696.72
2023-04-16T21:36:03.810Z,102704.59
2023-04-16T21:38:30.352Z,102701.91
2023-04-16T21:40:56.888Z,102699.28
2023-04-16T21:43:23.779Z,102702.88
2023-04-16T21:45:53.938Z,102709.03
2023-04-16T21:48:21.186Z,102697.69
2023-04-16T21:50:47.699Z,102700.38
2023-04-16T21:53:14.358Z,102702.19
2023-04-16T21:55:42.192Z,102696.97
2023-04-16T21:58:08.675Z,102693.38
2023-04-16T22:00:35.243Z,102693.38
2023-04-16T22:03:02.069Z,102693.38
2023-04-16T22:05:29.684Z,102691.59
2023-04-16T22:07:56.701Z,102693.31
2023-04-16T22:10:23.200Z,102692.44
2023-04-16T22:12:54.806Z,102690.59
2023-04-16T22:15:21.338Z,102692.34
2023-04-16T22:17:48.483Z,102695.88
2023-04-16T22:20:15.745Z,102681.84
2023-04-16T22:22:42.460Z,102691.53
2023-04-16T22:25:09.831Z,102686.28
2023-04-16T22:27:36.778Z,102690.66
2023-04-16T22:30:04.094Z,102685.38
2023-04-16T22:32:31.026Z,102685.38
2023-04-16T22:34:57.709Z,102680.97
2023-04-16T22:37:24.187Z,102680.97
2023-04-16T22:39:50.760Z,102682.78
2023-04-16T22:42:17.334Z,102678.38
2023-04-16T22:44:43.803Z,102669.59
2023-04-16T22:47:10.305Z,102673.13
2023-04-16T22:49:36.843Z,102681.91
2023-04-16T22:52:03.418Z,102678.41
2023-04-16T22:54:33.323Z,102688.09
2023-04-16T22:56:59.882Z,102689.84
2023-04-16T22:59:26.389Z,102680.25
2023-04-16T23:01:53.125Z,102690.84
2023-04-16T23:04:19.870Z,102700.50
2023-04-16T23:06:46.463Z,102689.97
2023-04-16T23:09:13.289Z,102691.66
2023-04-16T23:11:40.065Z,102690.00
2023-04-16T23:14:07.625Z,102685.56
2023-04-16T23:16:34.130Z,102686.41
2023-04-16T23:19:00.909Z,102688.19
2023-04-16T23:21:27.433Z,102691.69
2023-04-16T23:23:54.347Z,102688.13
2023-04-16T23:26:20.855Z,102692.56
2023-04-16T23:28:47.372Z,102694.25
2023-04-16T23:31:13.954Z,102696.00
2023-04-16T23:33:40.696Z,102696.03
2023-04-16T23:36:07.686Z,102690.78
2023-04-16T23:38:34.209Z,102688.16
2023-04-16T23:41:00.805Z,102700.44
2023-04-16T23:43:27.351Z,102696.94
2023-04-16T23:45:53.907Z,102697.78
2023-04-16T23:48:20.407Z,102702.16
2023-04-16T23:50:46.884Z,102698.69
2023-04-16T23:53:13.346Z,102702.22
2023-04-16T23:55:39.953Z,102705.78
2023-04-16T23:58:06.479Z,102699.63
